sensor_id;sensor_type;location;lat;lon;timestamp;pressure;altitude;pressure_sealevel;temperature;humidity
15634;BME280;14654;48.898;8.308;2023-09-19T00:02:17;99849.88;;;17.80;100.00
15634;BME280;14654;48.898;8.308;2023-09-19T00:04:42;99859.47;;;17.80;100.00
15634;BME280;14654;48.898;8.308;2023-09-19T00:07:08;99857.72;;;17.80;100.00
15634;BME280;14654;48.898;8.308;2023-09-19T00:09:34;99860.22;;;17.83;100.00
15634;BME280;14654;48.898;8.308;2023-09-19T00:12:06;99863.00;;;17.79;100.00
15634;BME280;14654;48.898;8.308;2023-09-19T00:14:32;99867.31;;;17.80;100.00
15634;BME280;14654;48.898;8.308;2023-09-19T00:17:02;99865.63;;;17.79;100.00
15634;BME280;14654;48.898;8.308;2023-09-19T00:19:36;99866.53;;;17.78;100.00
15634;BME280;14654;48.898;8.308;2023-09-19T00:22:03;99865.91;;;17.73;100.00
15634;BME280;14654;48.898;8.308;2023-09-19T00:24:29;99865.22;;;17.69;100.00
15634;BME280;14654;48.898;8.308;2023-09-19T00:26:54;99855.72;;;17.66;100.00
15634;BME280;14654;48.898;8.308;2023-09-19T00:29:21;99862.88;;;17.63;100.00
15634;BME280;14654;48.898;8.308;2023-09-19T00:31:46;99868.31;;;17.58;100.00
15634;BME280;14654;48.898;8.308;2023-09-19T00:34:11;99859.69;;;17.56;100.00
15634;BME280;14654;48.898;8.308;2023-09-19T00:36:37;99859.81;;;17.53;100.00
15634;BME280;14654;48.898;8.308;2023-09-19T00:39:06;99866.03;;;17.50;100.00
15634;BME280;14654;48.898;8.308;2023-09-19T00:41:33;99866.09;;;17.49;100.00
15634;BME280;14654;48.898;8.308;2023-09-19T00:44:00;99861.03;;;17.46;100.00
15634;BME280;14654;48.898;8.308;2023-09-19T00:46:27;99863.63;;;17.46;100.00
15634;BME280;14654;48.898;8.308;2023-09-19T00:48:52;99870.69;;;17.44;100.00
15634;BME280;14654;48.898;8.308;2023-09-19T00:51:19;99873.31;;;17.44;100.00
15634;BME280;14654;48.898;8.308;2023-09-19T00:53:46;99882.06;;;17.43;100.00
15634;BME280;14654;48.898;8.308;2023-09-19T00:56:12;99877.69;;;17.43;100.00
15634;BME280;14654;48.898;8.308;2023-09-19T00:58:38;99877.63;;;17.45;100.00
15634;BME280;14654;48.898;8.308;2023-09-19T01:01:04;99881.94;;;17.46;100.00
15634;BME280;14654;48.898;8.308;2023-09-19T01:03:33;99878.47;;;17.45;100.00
15634;BME280;14654;48.898;8.308;2023-09-19T01:05:59;99889.00;;;17.44;100.00
15634;BME280;14654;48.898;8.308;2023-09-19T01:08:25;99896.00;;;17.43;100.00
15634;BME280;14654;48.898;8.308;2023-09-19T01:11:01;99889.00;;;17.44;100.00
15634;BME280;14654;48.898;8.308;2023-09-19T01:13:48;99881.94;;;17.46;100.00
15634;BME280;14654;48.898;8.308;2023-09-19T01:16:32;99889.47;;;17.54;100.00
15634;BME280;14654;48.898;8.308;2023-09-19T01:22:26;99900.63;;;17.57;100.00
15634;BME280;14654;48.898;8.308;2023-09-19T01:30:46;99922.59;;;17.74;100.00
15634;BME280;14654;48.898;8.308;2023-09-19T01:33:12;99920.41;;;17.83;100.00
15634;BME280;14654;48.898;8.308;2023-09-19T01:35:38;99923.84;;;17.84;100.00
15634;BME280;14654;48.898;8.308;2023-09-19T01:38:05;99922.03;;;17.86;100.00
15634;BME280;14654;48.898;8.308;2023-09-19T01:40:33;99917.50;;;17.90;100.00
15634;BME280;14654;48.898;8.308;2023-09-19T01:43:13;99919.09;;;17.92;100.00
15634;BME280;14654;48.898;8.308;2023-09-19T01:51:03;99918.41;;;17.89;100.00
15634;BME280;14654;48.898;8.308;2023-09-19T01:54:01;99924.56;;;17.88;100.00
15634;BME280;14654;48.898;8.308;2023-09-19T01:56:34;99933.28;;;17.88;100.00
15634;BME280;14654;48.898;8.308;2023-09-19T01:59:08;99933.19;;;17.90;100.00
15634;BME280;14654;48.898;8.308;2023-09-19T02:01:37;99935.75;;;17.91;100.00
15634;BME280;14654;48.898;8.308;2023-09-19T02:04:03;99938.22;;;17.94;100.00
15634;BME280;14654;48.898;8.308;2023-09-19T02:06:29;99932.94;;;17.96;100.00
15634;BME280;14654;48.898;8.308;2023-09-19T02:08:54;99932.88;;;17.97;100.00
15634;BME280;14654;48.898;8.308;2023-09-19T02:11:20;99938.13;;;17.97;100.00
15634;BME280;14654;48.898;8.308;2023-09-19T02:13:46;99936.38;;;17.98;100.00
15634;BME280;14654;48.898;8.308;2023-09-19T02:16:11;99929.25;;;18.00;100.00
15634;BME280;14654;48.898;8.308;2023-09-19T02:18:37;99937.97;;;18.01;100.00
15634;BME280;14654;48.898;8.308;2023-09-19T02:21:04;99942.31;;;18.02;100.00
15634;BME280;14654;48.898;8.308;2023-09-19T02:23:32;99948.38;;;18.02;100.00
15634;BME280;14654;48.898;8.308;2023-09-19T02:25:58;99957.09;;;18.03;100.00
15634;BME280;14654;48.898;8.308;2023-09-19T02:28:26;99958.81;;;18.04;100.00
15634;BME280;14654;48.898;8.308;2023-09-19T02:30:55;99954.41;;;18.04;100.00
15634;BME280;14654;48.898;8.308;2023-09-19T02:33:21;99958.81;;;18.04;100.00
15634;BME280;14654;48.898;8.308;2023-09-19T02:35:46;99963.25;;;18.02;100.00
15634;BME280;14654;48.898;8.308;2023-09-19T02:38:12;99964.16;;;18.01;100.00
15634;BME280;14654;48.898;8.308;2023-09-19T02:40:37;99951.91;;;18.01;100.00
15634;BME280;14654;48.898;8.308;2023-09-19T02:43:03;99961.47;;;18.02;100.00
15634;BME280;14654;48.898;8.308;2023-09-19T02:45:30;99965.88;;;18.02;100.00
15634;BME280;14654;48.898;8.308;2023-09-19T02:47:56;99970.19;;;18.03;100.00
15634;BME280;14654;48.898;8.308;2023-09-19T02:50:21;99976.22;;;18.05;100.00
15634;BME280;14654;48.898;8.308;2023-09-19T02:52:47;99977.97;;;18.04;100.00
15634;BME280;14654;48.898;8.308;2023-09-19T02:55:14;99991.00;;;18.06;100.00
15634;BME280;14654;48.898;8.308;2023-09-19T02:57:49;99990.09;;;18.07;100.00
15634;BME280;14654;48.898;8.308;2023-09-19T03:00:16;99996.94;;;18.09;100.00
15634;BME280;14654;48.898;8.308;2023-09-19T03:02:42;99993.41;;;18.10;100.00
15634;BME280;14654;48.898;8.308;2023-09-19T03:05:08;99993.41;;;18.10;100.00
15634;BME280;14654;48.898;8.308;2023-09-19T03:07:36;99984.84;;;18.07;100.00
15634;BME280;14654;48.898;8.308;2023-09-19T03:10:05;99986.69;;;18.05;100.00
15634;BME280;14654;48.898;8.308;2023-09-19T03:12:30;99984.97;;;18.04;100.00
15634;BME280;14654;48.898;8.308;2023-09-19T03:14:56;99998.13;;;18.02;100.00
15634;BME280;14654;48.898;8.308;2023-09-19T03:17:22;99997.34;;;18.00;100.00
15634;BME280;14654;48.898;8.308;2023-09-19T03:19:47;99996.50;;;18.00;100.00
15634;BME280;14654;48.898;8.308;2023-09-19T03:22:14;100000.09;;;17.97;100.00
15634;BME280;14654;48.898;8.308;2023-09-19T03:24:39;99995.03;;;17.92;100.00
15634;BME280;14654;48.898;8.308;2023-09-19T03:27:05;99991.66;;;17.90;100.00
15634;BME280;14654;48.898;8.308;2023-09-19T03:29:30;99984.94;;;17.85;100.00
15634;BME280;14654;48.898;8.308;2023-09-19T03:31:55;99989.56;;;17.78;100.00
15634;BME280;14654;48.898;8.308;2023-09-19T03:34:21;99988.00;;;17.74;100.00
15634;BME280;14654;48.898;8.308;2023-09-19T03:36:46;99982.13;;;17.68;100.00
15634;BME280;14654;48.898;8.308;2023-09-19T03:39:12;99989.25;;;17.65;100.00
15634;BME280;14654;48.898;8.308;2023-09-19T03:41:39;99988.47;;;17.63;100.00
15634;BME280;14654;48.898;8.308;2023-09-19T03:44:05;99985.06;;;17.61;100.00
15634;BME280;14654;48.898;8.308;2023-09-19T03:46:30;99991.34;;;17.57;100.00
15634;BME280;14654;48.898;8.308;2023-09-19T03:48:57;99981.88;;;17.54;100.00
15634;BME280;14654;48.898;8.308;2023-09-19T03:51:22;99990.69;;;17.51;100.00
15634;BME280;14654;48.898;8.308;2023-09-19T03:53:47;99990.03;;;17.46;100.00
15634;BME280;14654;48.898;8.308;2023-09-19T03:56:14;99996.13;;;17.47;100.00
15634;BME280;14654;48.898;8.308;2023-09-19T03:58:39;99996.31;;;17.42;100.00
15634;BME280;14654;48.898;8.308;2023-09-19T04:01:05;100001.50;;;17.44;100.00
15634;BME280;14654;48.898;8.308;2023-09-19T04:03:32;99998.13;;;17.40;100.00
15634;BME280;14654;48.898;8.308;2023-09-19T04:06:15;100009.47;;;17.41;100.00
15634;BME280;14654;48.898;8.308;2023-09-19T04:08:40;100006.84;;;17.41;100.00
15634;BME280;14654;48.898;8.308;2023-09-19T04:11:06;100015.59;;;17.40;100.00
15634;BME280;14654;48.898;8.308;2023-09-19T04:13:31;100006.97;;;17.37;100.00
15634;BME280;14654;48.898;8.308;2023-09-19T04:15:57;100010.50;;;17.36;100.00
15634;BME280;14654;48.898;8.308;2023-09-19T04:18:22;100022.66;;;17.37;100.00
15634;BME280;14654;48.898;8.308;2023-09-19T04:20:52;100020.97;;;17.36;100.00
15634;BME280;14654;48.898;8.308;2023-09-19T04:23:18;100034.03;;;17.36;100.00
15634;BME280;14654;48.898;8.308;2023-09-19T04:25:46;100042.75;;;17.37;100.00
15634;BME280;14654;48.898;8.308;2023-09-19T04:28:11;100047.91;;;17.39;100.00
15634;BME280;14654;48.898;8.308;2023-09-19T04:30:37;100034.91;;;17.37;100.00
15634;BME280;14654;48.898;8.308;2023-09-19T04:33:06;100046.31;;;17.34;100.00
15634;BME280;14654;48.898;8.308;2023-09-19T04:35:31;100048.16;;;17.32;100.00
15634;BME280;14654;48.898;8.308;2023-09-19T04:37:57;100051.69;;;17.31;100.00
15634;BME280;14654;48.898;8.308;2023-09-19T04:40:22;100055.22;;;17.30;100.00
15634;BME280;14654;48.898;8.308;2023-09-19T04:42:58;100059.66;;;17.28;100.00
15634;BME280;14654;48.898;8.308;2023-09-19T04:45:25;100051.03;;;17.26;100.00
15634;BME280;14654;48.898;8.308;2023-09-19T04:47:51;100056.25;;;17.26;100.00
15634;BME280;14654;48.898;8.308;2023-09-19T04:50:17;100056.38;;;17.23;100.00
15634;BME280;14654;48.898;8.308;2023-09-19T04:52:43;100057.28;;;17.22;100.00
15634;BME280;14654;48.898;8.308;2023-09-19T04:55:13;100067.75;;;17.22;100.00
15634;BME280;14654;48.898;8.308;2023-09-19T04:57:48;100062.59;;;17.20;100.00
15634;BME280;14654;48.898;8.308;2023-09-19T05:00:19;100058.28;;;17.19;100.00
15634;BME280;14654;48.898;8.308;2023-09-19T05:02:49;100073.25;;;17.16;100.00
15634;BME280;14654;48.898;8.308;2023-09-19T05:05:14;100081.13;;;17.14;100.00
15634;BME280;14654;48.898;8.308;2023-09-19T05:07:42;100086.44;;;17.13;100.00
15634;BME280;14654;48.898;8.308;2023-09-19T05:10:08;100079.53;;;17.10;100.00
15634;BME280;14654;48.898;8.308;2023-09-19T05:12:36;100088.47;;;17.04;100.00
15634;BME280;14654;48.898;8.308;2023-09-19T05:15:06;100086.00;;;17.01;100.00
15634;BME280;14654;48.898;8.308;2023-09-19T05:17:35;100097.53;;;16.96;100.00
15634;BME280;14654;48.898;8.308;2023-09-19T05:20:01;100103.66;;;16.95;100.00
15634;BME280;14654;48.898;8.308;2023-09-19T05:22:40;100106.31;;;16.93;100.00
15634;BME280;14654;48.898;8.308;2023-09-19T05:25:06;100115.06;;;16.92;100.00
15634;BME280;14654;48.898;8.308;2023-09-19T05:27:32;100112.44;;;16.92;100.00
15634;BME280;14654;48.898;8.308;2023-09-19T05:29:59;100116.84;;;16.91;100.00
15634;BME280;14654;48.898;8.308;2023-09-19T05:32:24;100114.16;;;16.93;100.00
15634;BME280;14654;48.898;8.308;2023-09-19T05:34:49;100120.28;;;16.92;100.00
15634;BME280;14654;48.898;8.308;2023-09-19T05:37:18;100118.56;;;16.92;100.00
15634;BME280;14654;48.898;8.308;2023-09-19T05:39:43;100119.50;;;16.90;100.00
15634;BME280;14654;48.898;8.308;2023-09-19T05:42:08;100131.56;;;16.94;100.00
15634;BME280;14654;48.898;8.308;2023-09-19T05:44:34;100128.94;;;16.94;100.00
15634;BME280;14654;48.898;8.308;2023-09-19T05:47:02;100133.28;;;16.95;100.00
15634;BME280;14654;48.898;8.308;2023-09-19T05:49:28;100138.44;;;16.97;100.00
15634;BME280;14654;48.898;8.308;2023-09-19T05:51:53;100140.03;;;17.01;100.00
15634;BME280;14654;48.898;8.308;2023-09-19T05:54:20;100141.75;;;17.02;100.00
15634;BME280;14654;48.898;8.308;2023-09-19T05:56:45;100145.88;;;17.08;100.00
15634;BME280;14654;48.898;8.308;2023-09-19T05:59:12;100149.28;;;17.10;100.00
15634;BME280;14654;48.898;8.308;2023-09-19T06:01:38;100147.41;;;17.13;100.00
15634;BME280;14654;48.898;8.308;2023-09-19T06:04:04;100149.00;;;17.17;100.00
15634;BME280;14654;48.898;8.308;2023-09-19T06:06:29;100153.22;;;17.21;100.00
15634;BME280;14654;48.898;8.308;2023-09-19T06:08:55;100157.34;;;17.27;100.00
15634;BME280;14654;48.898;8.308;2023-09-19T06:11:21;100152.91;;;17.29;100.00
15634;BME280;14654;48.898;8.308;2023-09-19T06:13:48;100158.88;;;17.33;100.00
15634;BME280;14654;48.898;8.308;2023-09-19T06:16:13;100158.88;;;17.33;100.00
15634;BME280;14654;48.898;8.308;2023-09-19T06:18:39;100164.16;;;17.31;100.00
15634;BME280;14654;48.898;8.308;2023-09-19T06:21:04;100167.63;;;17.32;100.00
15634;BME280;14654;48.898;8.308;2023-09-19T06:23:33;100175.41;;;17.33;100.00
15634;BME280;14654;48.898;8.308;2023-09-19T06:25:59;100167.56;;;17.33;100.00
15634;BME280;14654;48.898;8.308;2023-09-19T06:28:24;100167.56;;;17.33;100.00
15634;BME280;14654;48.898;8.308;2023-09-19T06:30:53;100162.38;;;17.32;100.00
15634;BME280;14654;48.898;8.308;2023-09-19T06:33:18;100161.41;;;17.34;100.00
15634;BME280;14654;48.898;8.308;2023-09-19T06:35:46;100159.53;;;17.38;100.00
15634;BME280;14654;48.898;8.308;2023-09-19T06:38:12;100159.41;;;17.41;100.00
15634;BME280;14654;48.898;8.308;2023-09-19T06:40:38;100164.53;;;17.44;100.00
15634;BME280;14654;48.898;8.308;2023-09-19T06:43:04;100160.94;;;17.47;100.00
15634;BME280;14654;48.898;8.308;2023-09-19T06:45:30;100164.22;;;17.52;100.00
15634;BME280;14654;48.898;8.308;2023-09-19T06:47:57;100169.09;;;17.61;100.00
15634;BME280;14654;48.898;8.308;2023-09-19T06:50:23;100174.84;;;17.70;100.00
15634;BME280;14654;48.898;8.308;2023-09-19T06:52:52;100171.94;;;17.77;100.00
15634;BME280;14654;48.898;8.308;2023-09-19T06:55:20;100178.63;;;17.85;100.00
15634;BME280;14654;48.898;8.308;2023-09-19T06:57:47;100181.66;;;17.96;100.00
15634;BME280;14654;48.898;8.308;2023-09-19T07:00:13;100176.75;;;18.09;100.00
15634;BME280;14654;48.898;8.308;2023-09-19T07:03:01;100182.94;;;18.28;100.00
15634;BME280;14654;48.898;8.308;2023-09-19T07:05:35;100190.13;;;18.44;100.00
15634;BME280;14654;48.898;8.308;2023-09-19T07:08:08;100185.66;;;18.67;100.00
15634;BME280;14654;48.898;8.308;2023-09-19T07:10:38;100183.78;;;18.89;100.00
15634;BME280;14654;48.898;8.308;2023-09-19T07:13:07;100181.03;;;19.12;100.00
15634;BME280;14654;48.898;8.308;2023-09-19T07:15:36;100183.84;;;19.45;100.00
15634;BME280;14654;48.898;8.308;2023-09-19T07:18:05;100184.00;;;19.79;100.00
15634;BME280;14654;48.898;8.308;2023-09-19T07:20:32;100183.28;;;19.94;100.00
15634;BME280;14654;48.898;8.308;2023-09-19T07:22:58;100180.88;;;20.25;100.00
15634;BME280;14654;48.898;8.308;2023-09-19T07:25:27;100188.44;;;20.49;100.00
15634;BME280;14654;48.898;8.308;2023-09-19T07:27:55;100192.31;;;20.58;100.00
15634;BME280;14654;48.898;8.308;2023-09-19T07:30:20;100195.50;;;20.64;100.00
15634;BME280;14654;48.898;8.308;2023-09-19T07:32:46;100198.66;;;20.71;100.00
15634;BME280;14654;48.898;8.308;2023-09-19T07:35:11;100198.19;;;20.80;100.00
15634;BME280;14654;48.898;8.308;2023-09-19T07:37:37;100200.41;;;20.88;100.00
15634;BME280;14654;48.898;8.308;2023-09-19T07:40:03;100205.78;;;21.02;100.00
15634;BME280;14654;48.898;8.308;2023-09-19T07:42:37;100206.28;;;21.25;100.00
15634;BME280;14654;48.898;8.308;2023-09-19T07:45:06;100202.66;;;21.28;100.00
15634;BME280;14654;48.898;8.308;2023-09-19T07:47:33;100204.09;;;21.34;100.00
15634;BME280;14654;48.898;8.308;2023-09-19T07:49:59;100207.50;;;21.36;100.00
15634;BME280;14654;48.898;8.308;2023-09-19T07:52:27;100215.22;;;21.23;100.00
15634;BME280;14654;48.898;8.308;2023-09-19T07:54:53;100210.72;;;21.25;100.00
15634;BME280;14654;48.898;8.308;2023-09-19T07:57:18;100214.72;;;21.16;100.00
15634;BME280;14654;48.898;8.308;2023-09-19T07:59:44;100228.03;;;21.13;100.00
15634;BME280;14654;48.898;8.308;2023-09-19T08:02:11;100224.41;;;21.15;100.00
15634;BME280;14654;48.898;8.308;2023-09-19T08:04:42;100228.22;;;21.10;100.00
15634;BME280;14654;48.898;8.308;2023-09-19T08:07:07;100227.88;;;21.16;100.00
15634;BME280;14654;48.898;8.308;2023-09-19T08:09:34;100238.66;;;21.11;100.00
15634;BME280;14654;48.898;8.308;2023-09-19T08:11:59;100233.13;;;21.16;100.00
15634;BME280;14654;48.898;8.308;2023-09-19T08:14:28;100231.28;;;21.18;100.00
15634;BME280;14654;48.898;8.308;2023-09-19T08:16:57;100232.09;;;21.19;100.00
15634;BME280;14654;48.898;8.308;2023-09-19T08:19:22;100224.66;;;21.27;100.00
15634;BME280;14654;48.898;8.308;2023-09-19T08:21:48;100233.84;;;21.36;100.00
15634;BME280;14654;48.898;8.308;2023-09-19T08:24:13;100242.84;;;21.47;100.00
15634;BME280;14654;48.898;8.308;2023-09-19T08:26:40;100241.88;;;21.48;100.00
15634;BME280;14654;48.898;8.308;2023-09-19T08:29:05;100241.72;;;21.52;100.00
15634;BME280;14654;48.898;8.308;2023-09-19T08:31:31;100234.06;;;21.47;100.00
15634;BME280;14654;48.898;8.308;2023-09-19T08:33:58;100235.28;;;21.41;100.00
15634;BME280;14654;48.898;8.308;2023-09-19T08:36:24;100236.72;;;21.47;100.00
15634;BME280;14654;48.898;8.308;2023-09-19T08:38:50;100245.28;;;21.51;100.00
15634;BME280;14654;48.898;8.308;2023-09-19T08:41:17;100243.78;;;21.62;100.00
15634;BME280;14654;48.898;8.308;2023-09-19T08:43:42;100243.19;;;21.73;100.00
15634;BME280;14654;48.898;8.308;2023-09-19T08:46:15;100244.34;;;22.00;99.22
15634;BME280;14654;48.898;8.308;2023-09-19T08:48:47;100240.63;;;22.18;97.82
15634;BME280;14654;48.898;8.308;2023-09-19T08:51:32;100235.72;;;22.43;96.55
15634;BME280;14654;48.898;8.308;2023-09-19T08:54:03;100240.53;;;22.50;93.88
15634;BME280;14654;48.898;8.308;2023-09-19T08:56:32;100240.91;;;22.44;94.15
15634;BME280;14654;48.898;8.308;2023-09-19T08:59:03;100246.25;;;22.43;93.29
15634;BME280;14654;48.898;8.308;2023-09-19T09:01:31;100240.47;;;22.36;93.07
15634;BME280;14654;48.898;8.308;2023-09-19T09:03:57;100245.19;;;22.31;93.95
15634;BME280;14654;48.898;8.308;2023-09-19T09:06:24;100242.75;;;22.12;91.24
15634;BME280;14654;48.898;8.308;2023-09-19T09:08:53;100254.34;;;22.09;92.32
15634;BME280;14654;48.898;8.308;2023-09-19T09:11:20;100248.66;;;22.01;93.09
15634;BME280;14654;48.898;8.308;2023-09-19T09:13:47;100247.84;;;21.84;93.30
15634;BME280;14654;48.898;8.308;2023-09-19T09:16:13;100245.81;;;21.73;92.70
15634;BME280;14654;48.898;8.308;2023-09-19T09:18:42;100249.03;;;21.46;89.56
15634;BME280;14654;48.898;8.308;2023-09-19T09:21:09;100248.50;;;21.24;89.05
15634;BME280;14654;48.898;8.308;2023-09-19T09:23:35;100254.63;;;21.24;90.95
15634;BME280;14654;48.898;8.308;2023-09-19T09:26:00;100246.47;;;21.29;92.09
15634;BME280;14654;48.898;8.308;2023-09-19T09:28:30;100234.66;;;21.36;91.62
15634;BME280;14654;48.898;8.308;2023-09-19T09:30:56;100239.03;;;21.53;90.66
15634;BME280;14654;48.898;8.308;2023-09-19T09:33:23;100237.00;;;21.74;89.63
15634;BME280;14654;48.898;8.308;2023-09-19T09:36:00;100236.72;;;22.10;90.40
15634;BME280;14654;48.898;8.308;2023-09-19T09:38:44;100239.69;;;22.50;89.75
15634;BME280;14654;48.898;8.308;2023-09-19T09:41:10;100241.59;;;22.77;86.68
15634;BME280;14654;48.898;8.308;2023-09-19T09:43:41;100241.78;;;22.59;83.65
15634;BME280;14654;48.898;8.308;2023-09-19T09:46:15;100239.91;;;22.61;84.70
15634;BME280;14654;48.898;8.308;2023-09-19T09:48:47;100246.75;;;22.64;85.32
15634;BME280;14654;48.898;8.308;2023-09-19T09:51:32;100244.72;;;22.69;84.78
15634;BME280;14654;48.898;8.308;2023-09-19T09:54:18;100247.16;;;22.58;85.92
15634;BME280;14654;48.898;8.308;2023-09-19T09:56:56;100255.53;;;22.34;85.76
15634;BME280;14654;48.898;8.308;2023-09-19T10:02:12;100246.28;;;21.96;87.18
15634;BME280;14654;48.898;8.308;2023-09-19T10:04:39;100241.28;;;21.91;87.37
15634;BME280;14654;48.898;8.308;2023-09-19T10:07:30;100246.00;;;21.70;85.80
15634;BME280;14654;48.898;8.308;2023-09-19T10:10:04;100243.84;;;21.77;86.86
15634;BME280;14654;48.898;8.308;2023-09-19T10:12:45;100245.78;;;21.89;86.91
15634;BME280;14654;48.898;8.308;2023-09-19T10:15:14;100248.84;;;21.98;86.00
15634;BME280;14654;48.898;8.308;2023-09-19T10:17:42;100251.81;;;22.07;86.24
15634;BME280;14654;48.898;8.308;2023-09-19T10:20:12;100244.94;;;22.19;86.66
15634;BME280;14654;48.898;8.308;2023-09-19T10:23:10;100253.28;;;22.28;84.62
15634;BME280;14654;48.898;8.308;2023-09-19T10:25:42;100257.22;;;22.35;83.24
15634;BME280;14654;48.898;8.308;2023-09-19T10:28:09;100253.66;;;22.52;82.95
15634;BME280;14654;48.898;8.308;2023-09-19T10:30:46;100245.75;;;22.66;80.66
15634;BME280;14654;48.898;8.308;2023-09-19T10:33:14;100245.81;;;22.65;80.40
15634;BME280;14654;48.898;8.308;2023-09-19T10:35:47;100248.59;;;22.78;79.81
15634;BME280;14654;48.898;8.308;2023-09-19T10:38:14;100246.59;;;22.96;79.02
15634;BME280;14654;48.898;8.308;2023-09-19T10:40:42;100244.44;;;23.03;78.84
15634;BME280;14654;48.898;8.308;2023-09-19T10:43:18;100240.00;;;23.18;78.15
15634;BME280;14654;48.898;8.308;2023-09-19T10:45:45;100234.53;;;23.35;78.18
15634;BME280;14654;48.898;8.308;2023-09-19T10:48:12;100238.38;;;23.44;77.87
15634;BME280;14654;48.898;8.308;2023-09-19T10:50:44;100236.16;;;23.65;77.67
15634;BME280;14654;48.898;8.308;2023-09-19T10:53:12;100240.00;;;23.87;76.32
15634;BME280;14654;48.898;8.308;2023-09-19T10:55:38;100236.31;;;24.17;76.10
15634;BME280;14654;48.898;8.308;2023-09-19T10:58:05;100231.56;;;24.22;75.90
15634;BME280;14654;48.898;8.308;2023-09-19T11:00:51;100233.78;;;24.15;75.84
15634;BME280;14654;48.898;8.308;2023-09-19T11:03:17;100235.81;;;24.12;75.05
15634;BME280;14654;48.898;8.308;2023-09-19T11:06:07;100234.22;;;24.22;74.97
15634;BME280;14654;48.898;8.308;2023-09-19T11:08:51;100229.69;;;24.24;74.77
15634;BME280;14654;48.898;8.308;2023-09-19T11:25:43;100221.50;;;23.74;75.99
15634;BME280;14654;48.898;8.308;2023-09-19T11:28:28;100226.47;;;23.79;76.17
15634;BME280;14654;48.898;8.308;2023-09-19T11:30:53;100222.53;;;23.71;75.82
15634;BME280;14654;48.898;8.308;2023-09-19T11:36:13;100207.88;;;23.80;76.22
15634;BME280;14654;48.898;8.308;2023-09-19T11:46:24;100199.59;;;23.72;73.93
15634;BME280;14654;48.898;8.308;2023-09-19T11:48:51;100193.66;;;23.68;74.93
15634;BME280;14654;48.898;8.308;2023-09-19T11:51:22;100192.78;;;23.55;75.51
15634;BME280;14654;48.898;8.308;2023-09-19T11:53:52;100185.78;;;23.54;75.39
15634;BME280;14654;48.898;8.308;2023-09-19T11:56:23;100180.00;;;23.62;74.07
15634;BME280;14654;48.898;8.308;2023-09-19T11:58:50;100179.06;;;23.63;73.40
15634;BME280;14654;48.898;8.308;2023-09-19T12:01:32;100173.84;;;23.48;73.82
15634;BME280;14654;48.898;8.308;2023-09-19T12:03:59;100182.19;;;23.55;73.89
15634;BME280;14654;48.898;8.308;2023-09-19T12:06:26;100179.06;;;23.63;73.01
15634;BME280;14654;48.898;8.308;2023-09-19T12:08:52;100174.63;;;23.63;73.01
15634;BME280;14654;48.898;8.308;2023-09-19T12:11:21;100170.09;;;23.65;73.24
15634;BME280;14654;48.898;8.308;2023-09-19T12:13:47;100164.72;;;23.67;73.85
15634;BME280;14654;48.898;8.308;2023-09-19T12:16:17;100164.94;;;23.77;73.60
15634;BME280;14654;48.898;8.308;2023-09-19T12:18:46;100161.75;;;23.71;73.47
15634;BME280;14654;48.898;8.308;2023-09-19T12:21:31;100163.69;;;23.82;73.83
15634;BME280;14654;48.898;8.308;2023-09-19T12:26:44;100163.25;;;24.16;73.50
15634;BME280;14654;48.898;8.308;2023-09-19T12:29:17;100158.59;;;24.19;73.19
15634;BME280;14654;48.898;8.308;2023-09-19T12:31:55;100151.94;;;24.27;72.79
15634;BME280;14654;48.898;8.308;2023-09-19T12:34:32;100163.13;;;24.30;71.74
15634;BME280;14654;48.898;8.308;2023-09-19T12:37:14;100152.25;;;24.22;71.44
15634;BME280;14654;48.898;8.308;2023-09-19T12:39:53;100149.28;;;24.14;71.50
15634;BME280;14654;48.898;8.308;2023-09-19T12:42:23;100138.28;;;24.07;72.54
15634;BME280;14654;48.898;8.308;2023-09-19T12:44:50;100140.50;;;24.00;72.83
15634;BME280;14654;48.898;8.308;2023-09-19T12:47:21;100133.41;;;24.01;73.35
15634;BME280;14654;48.898;8.308;2023-09-19T12:50:24;100138.19;;;24.09;72.52
15634;BME280;14654;48.898;8.308;2023-09-19T12:52:55;100133.31;;;24.02;71.79
15634;BME280;14654;48.898;8.308;2023-09-19T12:55:28;100120.78;;;23.92;72.14
15634;BME280;14654;48.898;8.308;2023-09-19T13:00:37;100123.53;;;23.90;71.11
15634;BME280;14654;48.898;8.308;2023-09-19T13:03:14;100122.56;;;23.78;71.91
15634;BME280;14654;48.898;8.308;2023-09-19T13:05:58;100122.56;;;23.78;72.65
15634;BME280;14654;48.898;8.308;2023-09-19T13:08:30;100125.94;;;23.80;73.10
15634;BME280;14654;48.898;8.308;2023-09-19T13:13:25;100116.66;;;23.74;73.64
15634;BME280;14654;48.898;8.308;2023-09-19T13:15:53;100118.53;;;23.72;72.13
15634;BME280;14654;48.898;8.308;2023-09-19T13:18:19;100108.91;;;23.58;72.77
15634;BME280;14654;48.898;8.308;2023-09-19T13:21:08;100115.09;;;23.44;72.86
15634;BME280;14654;48.898;8.308;2023-09-19T13:23:38;100110.13;;;23.40;73.37
15634;BME280;14654;48.898;8.308;2023-09-19T13:26:03;100111.72;;;23.42;73.56
15634;BME280;14654;48.898;8.308;2023-09-19T13:28:31;100109.25;;;23.39;74.11
15634;BME280;14654;48.898;8.308;2023-09-19T13:30:56;100110.75;;;23.43;74.73
15634;BME280;14654;48.898;8.308;2023-09-19T13:33:22;100103.59;;;23.46;74.68
15634;BME280;14654;48.898;8.308;2023-09-19T13:35:47;100105.38;;;23.45;73.14
15634;BME280;14654;48.898;8.308;2023-09-19T13:38:13;100100.41;;;23.40;72.34
15634;BME280;14654;48.898;8.308;2023-09-19T13:40:39;100091.72;;;23.38;72.39
15634;BME280;14654;48.898;8.308;2023-09-19T13:43:07;100095.13;;;23.40;71.42
15634;BME280;14654;48.898;8.308;2023-09-19T13:45:33;100093.84;;;23.33;70.46